In Rescue
 
Open Full Screen Window  High Contrast Mode
Wind Gusting 00 knots
07
September 19, 2019 4:34 PM CDT
Weather Information
Wind Direction
  070 °
Wind Speed
  07 kt (8 mph)
Wind Gust
  00 kt (0 mph)
Altimeter
30.03 in
Visibility
10 SM
Temperature
18° C
64° F
Dewpoint
15° C
59° F
Humidity
83%
1hr Rain Fall
00.00 in.
24hr Rain Fall
00.00 in.
Sky Condition
Clear
VFR

METAR KRRT 192134Z AUTO 07007KT 10SM CLR 18/15 A3003 RMK AO2

FAA Disclaimer: The data displayed is for advisory purposes only and is not to be used for flight planning or operations.